sensor_id;sensor_type;location;lat;lon;timestamp;pressure;altitude;pressure_sealevel;temperature;humidity
54806;BME280;62866;55.776;37.496;2023-04-27T00:00:35;99102.53;;;10.06;79.95
54806;BME280;62866;55.776;37.496;2023-04-27T00:03:01;99093.28;;;10.02;80.14
54806;BME280;62866;55.776;37.496;2023-04-27T00:05:33;99087.72;;;9.97;80.41
54806;BME280;62866;55.776;37.496;2023-04-27T00:07:58;99113.00;;;10.01;80.63
54806;BME280;62866;55.776;37.496;2023-04-27T00:10:24;99112.56;;;9.98;80.40
54806;BME280;62866;55.776;37.496;2023-04-27T00:12:50;99103.72;;;9.90;81.17
54806;BME280;62866;55.776;37.496;2023-04-27T00:15:15;99110.09;;;9.96;81.17
54806;BME280;62866;55.776;37.496;2023-04-27T00:17:41;99110.09;;;9.96;81.37
54806;BME280;62866;55.776;37.496;2023-04-27T00:20:08;99107.03;;;9.93;81.41
54806;BME280;62866;55.776;37.496;2023-04-27T00:22:37;99116.69;;;9.94;81.52
54806;BME280;62866;55.776;37.496;2023-04-27T00:25:03;99098.59;;;9.89;81.36
54806;BME280;62866;55.776;37.496;2023-04-27T00:27:28;99110.72;;;9.92;81.58
54806;BME280;62866;55.776;37.496;2023-04-27T00:29:54;99116.25;;;9.90;81.69
54806;BME280;62866;55.776;37.496;2023-04-27T00:32:20;99113.78;;;9.88;81.79
54806;BME280;62866;55.776;37.496;2023-04-27T00:34:45;99119.13;;;9.88;81.82
54806;BME280;62866;55.776;37.496;2023-04-27T00:37:11;99118.72;;;9.85;81.27
54806;BME280;62866;55.776;37.496;2023-04-27T00:39:36;99120.97;;;9.88;81.42
54806;BME280;62866;55.776;37.496;2023-04-27T00:42:02;99115.03;;;9.86;81.86
54806;BME280;62866;55.776;37.496;2023-04-27T00:44:27;99120.13;;;9.87;81.90
54806;BME280;62866;55.776;37.496;2023-04-27T00:46:53;99114.00;;;9.87;81.95
54806;BME280;62866;55.776;37.496;2023-04-27T00:49:20;99109.63;;;9.79;81.67
54806;BME280;62866;55.776;37.496;2023-04-27T00:51:46;99112.34;;;9.86;81.93
54806;BME280;62866;55.776;37.496;2023-04-27T00:54:14;99102.06;;;9.83;80.72
54806;BME280;62866;55.776;37.496;2023-04-27T00:56:40;99108.44;;;9.88;81.22
54806;BME280;62866;55.776;37.496;2023-04-27T00:59:06;99117.88;;;9.84;81.21
54806;BME280;62866;55.776;37.496;2023-04-27T01:01:31;99106.19;;;9.79;80.95
54806;BME280;62866;55.776;37.496;2023-04-27T01:03:57;99110.69;;;9.78;81.08
54806;BME280;62866;55.776;37.496;2023-04-27T01:06:23;99120.31;;;9.79;81.32
54806;BME280;62866;55.776;37.496;2023-04-27T01:08:49;99109.88;;;9.78;81.49
54806;BME280;62866;55.776;37.496;2023-04-27T01:11:14;99116.03;;;9.78;81.79
54806;BME280;62866;55.776;37.496;2023-04-27T01:13:40;99114.97;;;9.79;81.88
54806;BME280;62866;55.776;37.496;2023-04-27T01:16:06;99115.59;;;9.81;82.06
54806;BME280;62866;55.776;37.496;2023-04-27T01:18:31;99110.06;;;9.83;81.79
54806;BME280;62866;55.776;37.496;2023-04-27T01:20:58;99108.03;;;9.85;82.06
54806;BME280;62866;55.776;37.496;2023-04-27T01:23:24;99108.03;;;9.85;81.85
54806;BME280;62866;55.776;37.496;2023-04-27T01:25:50;99106.19;;;9.85;81.75
54806;BME280;62866;55.776;37.496;2023-04-27T01:28:16;99113.59;;;9.90;82.23
54806;BME280;62866;55.776;37.496;2023-04-27T01:30:41;99107.41;;;9.89;81.56
54806;BME280;62866;55.776;37.496;2023-04-27T01:33:07;99112.13;;;9.87;81.76
54806;BME280;62866;55.776;37.496;2023-04-27T01:35:32;99111.91;;;9.82;81.85
54806;BME280;62866;55.776;37.496;2023-04-27T01:37:58;99116.88;;;9.85;82.08
54806;BME280;62866;55.776;37.496;2023-04-27T01:40:24;99116.25;;;9.83;82.11
54806;BME280;62866;55.776;37.496;2023-04-27T01:42:49;99106.56;;;9.82;82.22
54806;BME280;62866;55.776;37.496;2023-04-27T01:45:15;99091.75;;;9.67;82.01
54806;BME280;62866;55.776;37.496;2023-04-27T01:47:40;99113.34;;;9.78;82.03
54806;BME280;62866;55.776;37.496;2023-04-27T01:50:06;99111.88;;;9.69;81.90
54806;BME280;62866;55.776;37.496;2023-04-27T01:52:32;99121.72;;;9.69;82.41
54806;BME280;62866;55.776;37.496;2023-04-27T01:54:57;99123.78;;;9.67;82.53
54806;BME280;62866;55.776;37.496;2023-04-27T01:57:23;99124.78;;;9.66;82.66
54806;BME280;62866;55.776;37.496;2023-04-27T01:59:49;99125.81;;;9.65;82.09
54806;BME280;62866;55.776;37.496;2023-04-27T02:02:15;99122.94;;;9.60;82.70
54806;BME280;62866;55.776;37.496;2023-04-27T02:04:40;99115.13;;;9.65;82.80
54806;BME280;62866;55.776;37.496;2023-04-27T02:07:07;99114.09;;;9.59;81.88
54806;BME280;62866;55.776;37.496;2023-04-27T02:09:32;99110.78;;;9.57;82.42
54806;BME280;62866;55.776;37.496;2023-04-27T02:11:58;99117.16;;;9.56;82.76
54806;BME280;62866;55.776;37.496;2023-04-27T02:14:24;99120.06;;;9.61;82.74
54806;BME280;62866;55.776;37.496;2023-04-27T02:16:49;99127.84;;;9.63;82.53
54806;BME280;62866;55.776;37.496;2023-04-27T02:19:15;99124.38;;;9.62;82.69
54806;BME280;62866;55.776;37.496;2023-04-27T02:21:40;99127.06;;;9.62;82.86
54806;BME280;62866;55.776;37.496;2023-04-27T02:24:06;99155.16;;;9.65;82.71
54806;BME280;62866;55.776;37.496;2023-04-27T02:26:32;99153.97;;;9.67;83.06
54806;BME280;62866;55.776;37.496;2023-04-27T02:28:57;99150.66;;;9.65;83.03
54806;BME280;62866;55.776;37.496;2023-04-27T02:31:23;99146.34;;;9.71;82.32
54806;BME280;62866;55.776;37.496;2023-04-27T02:33:49;99141.03;;;9.71;82.19
54806;BME280;62866;55.776;37.496;2023-04-27T02:36:14;99155.44;;;9.76;82.61
54806;BME280;62866;55.776;37.496;2023-04-27T02:38:40;99159.34;;;9.80;82.72
54806;BME280;62866;55.776;37.496;2023-04-27T02:41:05;99162.84;;;9.87;82.39
54806;BME280;62866;55.776;37.496;2023-04-27T02:43:31;99159.59;;;9.92;82.01
54806;BME280;62866;55.776;37.496;2023-04-27T02:46:01;99159.03;;;10.03;82.04
54806;BME280;62866;55.776;37.496;2023-04-27T02:48:26;99177.31;;;10.06;82.21
54806;BME280;62866;55.776;37.496;2023-04-27T02:50:52;99154.91;;;10.01;82.33
54806;BME280;62866;55.776;37.496;2023-04-27T02:53:17;99158.22;;;10.03;82.22
54806;BME280;62866;55.776;37.496;2023-04-27T02:55:46;99168.91;;;10.09;82.32
54806;BME280;62866;55.776;37.496;2023-04-27T02:58:15;99168.47;;;10.06;82.36
54806;BME280;62866;55.776;37.496;2023-04-27T03:00:41;99174.47;;;10.14;82.30
54806;BME280;62866;55.776;37.496;2023-04-27T03:03:07;99177.59;;;10.18;82.37
54806;BME280;62866;55.776;37.496;2023-04-27T03:05:34;99171.44;;;10.17;82.39
54806;BME280;62866;55.776;37.496;2023-04-27T03:08:00;99175.34;;;10.21;82.11
54806;BME280;62866;55.776;37.496;2023-04-27T03:10:26;99173.94;;;10.25;82.48
54806;BME280;62866;55.776;37.496;2023-04-27T03:12:51;99162.75;;;10.15;82.16
54806;BME280;62866;55.776;37.496;2023-04-27T03:15:17;99175.78;;;10.32;82.51
54806;BME280;62866;55.776;37.496;2023-04-27T03:17:42;99176.63;;;10.32;82.13
54806;BME280;62866;55.776;37.496;2023-04-27T03:20:08;99167.56;;;10.33;82.09
54806;BME280;62866;55.776;37.496;2023-04-27T03:22:37;99185.06;;;10.49;82.40
54806;BME280;62866;55.776;37.496;2023-04-27T03:25:03;99181.59;;;10.55;82.24
54806;BME280;62866;55.776;37.496;2023-04-27T03:27:29;99175.03;;;10.57;82.07
54806;BME280;62866;55.776;37.496;2023-04-27T03:29:55;99185.53;;;10.65;82.24
54806;BME280;62866;55.776;37.496;2023-04-27T03:32:20;99187.16;;;10.73;82.16
54806;BME280;62866;55.776;37.496;2023-04-27T03:34:46;99188.63;;;10.76;82.19
54806;BME280;62866;55.776;37.496;2023-04-27T03:37:11;99191.09;;;10.84;82.01
54806;BME280;62866;55.776;37.496;2023-04-27T03:39:37;99199.94;;;10.91;81.71
54806;BME280;62866;55.776;37.496;2023-04-27T03:42:03;99203.44;;;10.98;81.76
54806;BME280;62866;55.776;37.496;2023-04-27T03:44:29;99201.00;;;11.03;81.26
54806;BME280;62866;55.776;37.496;2023-04-27T03:46:58;99203.47;;;11.11;81.04
54806;BME280;62866;55.776;37.496;2023-04-27T03:49:24;99210.25;;;11.20;80.90
54806;BME280;62866;55.776;37.496;2023-04-27T03:51:50;99214.78;;;11.26;80.50
54806;BME280;62866;55.776;37.496;2023-04-27T03:54:15;99211.69;;;11.29;80.17
54806;BME280;62866;55.776;37.496;2023-04-27T03:56:41;99213.09;;;11.38;79.82
54806;BME280;62866;55.776;37.496;2023-04-27T03:59:08;99203.84;;;11.41;79.39
54806;BME280;62866;55.776;37.496;2023-04-27T04:01:36;99204.03;;;11.53;78.51
54806;BME280;62866;55.776;37.496;2023-04-27T04:04:04;99213.88;;;11.65;78.22
54806;BME280;62866;55.776;37.496;2023-04-27T04:06:29;99218.84;;;11.75;77.28
54806;BME280;62866;55.776;37.496;2023-04-27T04:08:55;99213.47;;;11.82;77.19
54806;BME280;62866;55.776;37.496;2023-04-27T04:11:21;99207.50;;;11.86;77.03
54806;BME280;62866;55.776;37.496;2023-04-27T04:13:46;99219.81;;;11.94;76.60
54806;BME280;62866;55.776;37.496;2023-04-27T04:16:12;99202.50;;;11.90;75.69
54806;BME280;62866;55.776;37.496;2023-04-27T04:18:38;99220.78;;;12.06;75.38
54806;BME280;62866;55.776;37.496;2023-04-27T04:21:03;99229.63;;;12.20;74.91
54806;BME280;62866;55.776;37.496;2023-04-27T04:23:29;99228.34;;;12.29;73.68
54806;BME280;62866;55.776;37.496;2023-04-27T04:25:55;99224.59;;;12.36;73.27
54806;BME280;62866;55.776;37.496;2023-04-27T04:28:22;99220.22;;;12.42;73.33
54806;BME280;62866;55.776;37.496;2023-04-27T04:30:48;99232.75;;;12.54;73.04
54806;BME280;62866;55.776;37.496;2023-04-27T04:33:14;99231.44;;;12.64;72.63
54806;BME280;62866;55.776;37.496;2023-04-27T04:35:39;99234.91;;;12.77;72.77
54806;BME280;62866;55.776;37.496;2023-04-27T04:38:11;99230.13;;;12.79;72.33
54806;BME280;62866;55.776;37.496;2023-04-27T04:40:38;99232.94;;;12.91;71.93
54806;BME280;62866;55.776;37.496;2023-04-27T04:43:04;99229.78;;;13.01;71.74
54806;BME280;62866;55.776;37.496;2023-04-27T04:45:29;99226.00;;;13.08;72.04
54806;BME280;62866;55.776;37.496;2023-04-27T04:47:55;99231.31;;;13.21;70.61
54806;BME280;62866;55.776;37.496;2023-04-27T04:50:21;99237.78;;;13.39;70.31
54806;BME280;62866;55.776;37.496;2023-04-27T04:52:47;99226.50;;;13.48;69.87
54806;BME280;62866;55.776;37.496;2023-04-27T04:55:14;99223.09;;;13.59;69.20
54806;BME280;62866;55.776;37.496;2023-04-27T04:57:39;99225.81;;;13.78;68.74
54806;BME280;62866;55.776;37.496;2023-04-27T05:00:05;99233.94;;;13.89;68.66
54806;BME280;62866;55.776;37.496;2023-04-27T05:02:36;99232.31;;;14.06;68.06
54806;BME280;62866;55.776;37.496;2023-04-27T05:05:01;99228.22;;;14.22;67.31
54806;BME280;62866;55.776;37.496;2023-04-27T05:07:27;99239.59;;;14.72;66.47
54806;BME280;62866;55.776;37.496;2023-04-27T05:09:53;99236.78;;;15.21;65.53
54806;BME280;62866;55.776;37.496;2023-04-27T05:12:18;99238.38;;;16.38;63.19
54806;BME280;62866;55.776;37.496;2023-04-27T05:14:44;99242.97;;;18.82;57.44
54806;BME280;62866;55.776;37.496;2023-04-27T05:17:09;99246.09;;;20.54;52.73
54806;BME280;62866;55.776;37.496;2023-04-27T05:19:35;99236.75;;;21.27;50.96
54806;BME280;62866;55.776;37.496;2023-04-27T05:22:01;99245.28;;;22.36;49.43
54806;BME280;62866;55.776;37.496;2023-04-27T05:24:26;99234.06;;;23.69;47.26
54806;BME280;62866;55.776;37.496;2023-04-27T05:26:52;99248.72;;;24.31;45.67
54806;BME280;62866;55.776;37.496;2023-04-27T05:29:17;99250.09;;;25.65;42.89
54806;BME280;62866;55.776;37.496;2023-04-27T05:31:43;99234.22;;;26.63;40.18
54806;BME280;62866;55.776;37.496;2023-04-27T05:34:08;99228.53;;;27.09;39.37
54806;BME280;62866;55.776;37.496;2023-04-27T05:36:35;99237.06;;;26.58;39.10
54806;BME280;62866;55.776;37.496;2023-04-27T05:39:01;99239.66;;;25.67;40.63
54806;BME280;62866;55.776;37.496;2023-04-27T05:41:29;99234.50;;;25.47;40.90
54806;BME280;62866;55.776;37.496;2023-04-27T05:43:54;99243.16;;;24.79;41.45
54806;BME280;62866;55.776;37.496;2023-04-27T05:46:20;99240.63;;;25.06;41.04
54806;BME280;62866;55.776;37.496;2023-04-27T05:48:46;99243.94;;;25.87;39.75
54806;BME280;62866;55.776;37.496;2023-04-27T05:51:11;99245.53;;;24.67;41.42
54806;BME280;62866;55.776;37.496;2023-04-27T05:53:37;99233.81;;;23.95;42.15
54806;BME280;62866;55.776;37.496;2023-04-27T05:56:02;99236.66;;;23.85;42.78
54806;BME280;62866;55.776;37.496;2023-04-27T05:58:31;99236.41;;;23.81;42.56
54806;BME280;62866;55.776;37.496;2023-04-27T06:00:58;99230.56;;;23.64;42.73
54806;BME280;62866;55.776;37.496;2023-04-27T06:03:23;99238.28;;;23.57;42.26
54806;BME280;62866;55.776;37.496;2023-04-27T06:05:57;99233.44;;;23.49;41.95
54806;BME280;62866;55.776;37.496;2023-04-27T06:08:22;99240.00;;;23.08;43.11
54806;BME280;62866;55.776;37.496;2023-04-27T06:10:51;99247.38;;;22.54;43.59
54806;BME280;62866;55.776;37.496;2023-04-27T06:13:17;99242.41;;;22.02;44.55
54806;BME280;62866;55.776;37.496;2023-04-27T06:15:43;99250.31;;;21.68;45.29
54806;BME280;62866;55.776;37.496;2023-04-27T06:18:09;99248.16;;;21.54;45.02
54806;BME280;62866;55.776;37.496;2023-04-27T06:20:34;99250.91;;;21.49;44.77
54806;BME280;62866;55.776;37.496;2023-04-27T06:23:00;99251.72;;;21.25;45.34
54806;BME280;62866;55.776;37.496;2023-04-27T06:25:26;99230.19;;;20.98;45.50
54806;BME280;62866;55.776;37.496;2023-04-27T06:27:53;99257.34;;;20.98;45.28
54806;BME280;62866;55.776;37.496;2023-04-27T06:30:19;99259.53;;;21.06;45.37
54806;BME280;62866;55.776;37.496;2023-04-27T06:32:44;99262.25;;;21.11;45.46
54806;BME280;62866;55.776;37.496;2023-04-27T06:35:10;99254.13;;;21.26;45.52
54806;BME280;62866;55.776;37.496;2023-04-27T06:37:36;99248.41;;;21.17;44.89
54806;BME280;62866;55.776;37.496;2023-04-27T06:40:01;99248.72;;;21.36;45.26
54806;BME280;62866;55.776;37.496;2023-04-27T06:42:28;99247.91;;;21.66;44.77
54806;BME280;62866;55.776;37.496;2023-04-27T06:44:54;99253.34;;;21.41;44.12
54806;BME280;62866;55.776;37.496;2023-04-27T06:47:23;99251.72;;;21.25;44.67
54806;BME280;62866;55.776;37.496;2023-04-27T06:49:48;99253.88;;;21.28;43.46
54806;BME280;62866;55.776;37.496;2023-04-27T06:52:15;99257.69;;;21.47;42.91
54806;BME280;62866;55.776;37.496;2023-04-27T06:54:40;99244.88;;;21.78;42.54
54806;BME280;62866;55.776;37.496;2023-04-27T06:57:06;99246.22;;;21.80;42.11
54806;BME280;62866;55.776;37.496;2023-04-27T06:59:31;99255.97;;;22.12;40.71
54806;BME280;62866;55.776;37.496;2023-04-27T07:01:57;99257.94;;;21.91;41.55
54806;BME280;62866;55.776;37.496;2023-04-27T07:04:23;99246.78;;;21.82;41.71
54806;BME280;62866;55.776;37.496;2023-04-27T07:06:49;99250.28;;;21.93;41.82
54806;BME280;62866;55.776;37.496;2023-04-27T07:09:14;99254.88;;;22.18;41.19
54806;BME280;62866;55.776;37.496;2023-04-27T07:11:40;99258.97;;;22.10;41.12
54806;BME280;62866;55.776;37.496;2023-04-27T07:14:08;99251.91;;;21.94;41.53
54806;BME280;62866;55.776;37.496;2023-04-27T07:16:34;99242.97;;;21.99;38.42
54806;BME280;62866;55.776;37.496;2023-04-27T07:19:00;99235.66;;;21.64;38.59
54806;BME280;62866;55.776;37.496;2023-04-27T07:21:25;99260.94;;;21.44;38.42
54806;BME280;62866;55.776;37.496;2023-04-27T07:23:53;99249.53;;;21.47;38.13
54806;BME280;62866;55.776;37.496;2023-04-27T07:26:19;99246.78;;;21.77;37.69
54806;BME280;62866;55.776;37.496;2023-04-27T07:28:45;99256.00;;;21.86;38.27
54806;BME280;62866;55.776;37.496;2023-04-27T07:31:11;99255.59;;;22.49;38.50
54806;BME280;62866;55.776;37.496;2023-04-27T07:33:37;99254.97;;;23.16;37.29
54806;BME280;62866;55.776;37.496;2023-04-27T07:36:03;99253.59;;;23.53;35.83
54806;BME280;62866;55.776;37.496;2023-04-27T07:38:29;99258.31;;;23.76;36.14
54806;BME280;62866;55.776;37.496;2023-04-27T07:40:57;99250.03;;;23.57;35.96
54806;BME280;62866;55.776;37.496;2023-04-27T07:43:23;99256.03;;;23.54;36.28
54806;BME280;62866;55.776;37.496;2023-04-27T07:45:50;99267.00;;;24.07;35.76
54806;BME280;62866;55.776;37.496;2023-04-27T07:48:16;99266.72;;;25.17;34.24
54806;BME280;62866;55.776;37.496;2023-04-27T07:50:41;99259.53;;;24.84;34.44
54806;BME280;62866;55.776;37.496;2023-04-27T07:53:07;99263.88;;;24.85;34.55
54806;BME280;62866;55.776;37.496;2023-04-27T07:55:32;99279.34;;;25.83;34.04
54806;BME280;62866;55.776;37.496;2023-04-27T07:57:58;99268.81;;;27.00;31.59
54806;BME280;62866;55.776;37.496;2023-04-27T08:00:24;99273.13;;;27.14;31.64
54806;BME280;62866;55.776;37.496;2023-04-27T08:02:51;99269.41;;;26.97;30.65
54806;BME280;62866;55.776;37.496;2023-04-27T08:05:17;99270.63;;;25.95;32.81
54806;BME280;62866;55.776;37.496;2023-04-27T08:07:43;99264.06;;;25.63;31.43
54806;BME280;62866;55.776;37.496;2023-04-27T08:10:08;99274.69;;;25.97;31.86
54806;BME280;62866;55.776;37.496;2023-04-27T08:12:37;99261.44;;;26.73;31.57
54806;BME280;62866;55.776;37.496;2023-04-27T08:15:04;99256.44;;;27.47;31.17
54806;BME280;62866;55.776;37.496;2023-04-27T08:17:30;99260.44;;;28.73;30.40
54806;BME280;62866;55.776;37.496;2023-04-27T08:19:55;99253.47;;;31.14;26.81
54806;BME280;62866;55.776;37.496;2023-04-27T08:22:21;99256.53;;;32.44;25.80
54806;BME280;62866;55.776;37.496;2023-04-27T08:24:46;99249.88;;;33.65;24.04
54806;BME280;62866;55.776;37.496;2023-04-27T08:27:12;99252.00;;;33.56;22.81
54806;BME280;62866;55.776;37.496;2023-04-27T08:29:38;99250.16;;;33.32;22.90
54806;BME280;62866;55.776;37.496;2023-04-27T08:32:03;99255.75;;;31.98;24.76
54806;BME280;62866;55.776;37.496;2023-04-27T08:34:29;99251.16;;;30.45;25.52
54806;BME280;62866;55.776;37.496;2023-04-27T08:36:55;99254.69;;;28.92;27.55
54806;BME280;62866;55.776;37.496;2023-04-27T08:39:22;99246.16;;;27.52;29.42
54806;BME280;62866;55.776;37.496;2023-04-27T08:41:48;99256.13;;;27.71;29.64
54806;BME280;62866;55.776;37.496;2023-04-27T08:44:13;99261.03;;;28.44;28.91
54806;BME280;62866;55.776;37.496;2023-04-27T08:46:40;99259.81;;;27.97;29.62
54806;BME280;62866;55.776;37.496;2023-04-27T08:49:06;99254.88;;;27.32;30.51
54806;BME280;62866;55.776;37.496;2023-04-27T08:51:32;99258.59;;;26.37;31.55
54806;BME280;62866;55.776;37.496;2023-04-27T08:53:58;99245.94;;;25.67;31.94
54806;BME280;62866;55.776;37.496;2023-04-27T08:56:26;99257.41;;;25.18;33.09
54806;BME280;62866;55.776;37.496;2023-04-27T08:58:54;99273.75;;;25.05;34.40
54806;BME280;62866;55.776;37.496;2023-04-27T09:01:21;99256.56;;;26.01;33.35
54806;BME280;62866;55.776;37.496;2023-04-27T09:03:48;99260.22;;;27.37;32.45
54806;BME280;62866;55.776;37.496;2023-04-27T09:06:14;99251.88;;;28.75;31.14
54806;BME280;62866;55.776;37.496;2023-04-27T09:08:48;99259.41;;;30.53;29.75
54806;BME280;62866;55.776;37.496;2023-04-27T09:11:37;99251.16;;;32.02;29.47
54806;BME280;62866;55.776;37.496;2023-04-27T09:14:15;99265.38;;;31.68;28.37
54806;BME280;62866;55.776;37.496;2023-04-27T09:16:41;99259.72;;;30.81;28.31
54806;BME280;62866;55.776;37.496;2023-04-27T09:19:06;99254.16;;;29.67;29.98
54806;BME280;62866;55.776;37.496;2023-04-27T09:21:32;99225.13;;;28.10;31.21
54806;BME280;62866;55.776;37.496;2023-04-27T09:24:08;99255.91;;;26.87;32.82
54806;BME280;62866;55.776;37.496;2023-04-27T09:26:34;99256.22;;;26.03;33.92
54806;BME280;62866;55.776;37.496;2023-04-27T09:29:01;99262.03;;;25.37;35.24
54806;BME280;62866;55.776;37.496;2023-04-27T09:31:31;99261.16;;;24.85;35.86
54806;BME280;62866;55.776;37.496;2023-04-27T09:33:57;99258.00;;;24.54;35.91
54806;BME280;62866;55.776;37.496;2023-04-27T09:36:23;99255.38;;;24.20;36.07
54806;BME280;62866;55.776;37.496;2023-04-27T09:38:50;99245.72;;;23.51;37.70
54806;BME280;62866;55.776;37.496;2023-04-27T09:41:16;99248.91;;;22.80;38.95
54806;BME280;62866;55.776;37.496;2023-04-27T09:43:42;99255.22;;;22.76;38.59
54806;BME280;62866;55.776;37.496;2023-04-27T09:46:11;99252.19;;;22.72;38.85
54806;BME280;62866;55.776;37.496;2023-04-27T09:48:37;99250.28;;;22.78;38.54
54806;BME280;62866;55.776;37.496;2023-04-27T09:51:03;99250.22;;;22.88;37.59
54806;BME280;62866;55.776;37.496;2023-04-27T09:53:36;99257.56;;;22.92;37.73
54806;BME280;62866;55.776;37.496;2023-04-27T09:56:31;99258.56;;;23.06;37.44
54806;BME280;62866;55.776;37.496;2023-04-27T10:01:54;99252.78;;;22.74;37.25
54806;BME280;62866;55.776;37.496;2023-04-27T10:07:05;99253.69;;;22.44;37.34
54806;BME280;62866;55.776;37.496;2023-04-27T10:09:36;99253.09;;;22.57;37.11
54806;BME280;62866;55.776;37.496;2023-04-27T10:12:36;99247.03;;;22.76;37.05
54806;BME280;62866;55.776;37.496;2023-04-27T10:15:15;99246.47;;;22.79;36.94
54806;BME280;62866;55.776;37.496;2023-04-27T10:17:49;99258.41;;;22.93;37.24
54806;BME280;62866;55.776;37.496;2023-04-27T10:20:15;99242.16;;;23.12;37.57
54806;BME280;62866;55.776;37.496;2023-04-27T10:22:45;99237.56;;;23.07;37.86
54806;BME280;62866;55.776;37.496;2023-04-27T10:25:17;99249.06;;;23.38;37.83
54806;BME280;62866;55.776;37.496;2023-04-27T10:27:54;99241.84;;;23.52;37.87
54806;BME280;62866;55.776;37.496;2023-04-27T10:30:23;99247.28;;;23.57;38.25
54806;BME280;62866;55.776;37.496;2023-04-27T10:32:56;99238.63;;;23.11;39.00
54806;BME280;62866;55.776;37.496;2023-04-27T10:35:34;99252.47;;;22.70;39.41
54806;BME280;62866;55.776;37.496;2023-04-27T10:38:15;99251.94;;;22.09;39.21
54806;BME280;62866;55.776;37.496;2023-04-27T10:40:43;99255.78;;;21.52;39.13
54806;BME280;62866;55.776;37.496;2023-04-27T10:43:13;99262.03;;;21.23;40.27
54806;BME280;62866;55.776;37.496;2023-04-27T10:45:39;99252.75;;;20.98;41.23
54806;BME280;62866;55.776;37.496;2023-04-27T10:48:05;99270.34;;;20.75;41.38
54806;BME280;62866;55.776;37.496;2023-04-27T10:50:31;99267.34;;;20.67;41.24
54806;BME280;62866;55.776;37.496;2023-04-27T10:53:03;99255.06;;;20.49;41.74
54806;BME280;62866;55.776;37.496;2023-04-27T10:55:29;99269.38;;;20.34;42.58
54806;BME280;62866;55.776;37.496;2023-04-27T10:57:56;99280.69;;;20.26;43.15
54806;BME280;62866;55.776;37.496;2023-04-27T11:00:29;99290.66;;;20.11;44.63
54806;BME280;62866;55.776;37.496;2023-04-27T11:03:08;99289.50;;;19.96;47.51
54806;BME280;62866;55.776;37.496;2023-04-27T11:05:34;99275.28;;;19.84;46.84
54806;BME280;62866;55.776;37.496;2023-04-27T11:08:07;99281.44;;;20.12;46.62
54806;BME280;62866;55.776;37.496;2023-04-27T11:10:33;99287.84;;;20.37;43.57
54806;BME280;62866;55.776;37.496;2023-04-27T11:13:07;99279.81;;;20.63;43.83
54806;BME280;62866;55.776;37.496;2023-04-27T11:15:50;99279.81;;;20.68;42.90
54806;BME280;62866;55.776;37.496;2023-04-27T11:18:22;99280.63;;;20.63;42.51
54806;BME280;62866;55.776;37.496;2023-04-27T11:21:31;99282.16;;;20.39;43.23
54806;BME280;62866;55.776;37.496;2023-04-27T11:23:38;99280.22;;;20.34;43.57
54806;BME280;62866;55.776;37.496;2023-04-27T11:26:15;99278.69;;;20.49;43.30
54806;BME280;62866;55.776;37.496;2023-04-27T11:28:42;99291.97;;;20.45;43.52
54806;BME280;62866;55.776;37.496;2023-04-27T11:31:08;99288.63;;;20.33;43.76
54806;BME280;62866;55.776;37.496;2023-04-27T11:33:34;99283.84;;;20.50;44.39
54806;BME280;62866;55.776;37.496;2023-04-27T11:36:00;99288.59;;;20.28;44.49
54806;BME280;62866;55.776;37.496;2023-04-27T11:38:32;99285.28;;;20.21;45.05
54806;BME280;62866;55.776;37.496;2023-04-27T11:41:02;99285.56;;;20.19;44.79
54806;BME280;62866;55.776;37.496;2023-04-27T11:43:28;99286.63;;;20.18;44.59
54806;BME280;62866;55.776;37.496;2023-04-27T11:45:55;99261.34;;;20.07;45.18
54806;BME280;62866;55.776;37.496;2023-04-27T11:48:25;99277.41;;;20.14;44.92
54806;BME280;62866;55.776;37.496;2023-04-27T11:50:51;99282.69;;;19.94;45.20
54806;BME280;62866;55.776;37.496;2023-04-27T11:53:35;99277.97;;;19.74;45.70
54806;BME280;62866;55.776;37.496;2023-04-27T11:56:02;99288.50;;;19.70;45.83
54806;BME280;62866;55.776;37.496;2023-04-27T11:58:34;99280.28;;;19.60;46.43
54806;BME280;62866;55.776;37.496;2023-04-27T12:01:01;99277.22;;;19.52;47.05
54806;BME280;62866;55.776;37.496;2023-04-27T12:03:28;99272.59;;;19.47;47.31
54806;BME280;62866;55.776;37.496;2023-04-27T12:05:55;99267.31;;;19.36;47.11
54806;BME280;62866;55.776;37.496;2023-04-27T12:08:22;99252.41;;;19.06;47.75
54806;BME280;62866;55.776;37.496;2023-04-27T12:10:48;99258.72;;;19.17;47.37
54806;BME280;62866;55.776;37.496;2023-04-27T12:13:14;99263.44;;;19.26;47.74
54806;BME280;62866;55.776;37.496;2023-04-27T12:15:40;99262.09;;;19.29;48.22
54806;BME280;62866;55.776;37.496;2023-04-27T12:18:06;99267.31;;;19.36;48.35
54806;BME280;62866;55.776;37.496;2023-04-27T12:20:33;99267.06;;;19.37;48.40
54806;BME280;62866;55.776;37.496;2023-04-27T12:22:58;99264.09;;;19.39;48.43
54806;BME280;62866;55.776;37.496;2023-04-27T12:25:24;99255.13;;;19.38;47.58
54806;BME280;62866;55.776;37.496;2023-04-27T12:27:50;99252.06;;;19.56;47.42
54806;BME280;62866;55.776;37.496;2023-04-27T12:30:16;99261.06;;;19.67;46.36
54806;BME280;62866;55.776;37.496;2023-04-27T12:32:42;99261.06;;;19.67;46.15
54806;BME280;62866;55.776;37.496;2023-04-27T12:35:08;99262.44;;;19.64;46.62
54806;BME280;62866;55.776;37.496;2023-04-27T12:37:35;99242.31;;;19.60;45.69
54806;BME280;62866;55.776;37.496;2023-04-27T12:40:01;99246.38;;;19.58;45.85
54806;BME280;62866;55.776;37.496;2023-04-27T12:42:31;99251.25;;;19.56;45.73
54806;BME280;62866;55.776;37.496;2023-04-27T12:44:56;99248.75;;;19.49;45.77
54806;BME280;62866;55.776;37.496;2023-04-27T12:47:22;99250.13;;;19.52;46.30
54806;BME280;62866;55.776;37.496;2023-04-27T12:49:47;99249.09;;;19.58;45.66
54806;BME280;62866;55.776;37.496;2023-04-27T12:52:13;99248.00;;;19.59;45.72
54806;BME280;62866;55.776;37.496;2023-04-27T12:54:39;99229.28;;;19.57;45.42
54806;BME280;62866;55.776;37.496;2023-04-27T12:57:05;99240.16;;;19.62;44.85